createdAt,value
2022-08-19T00:00:21.635Z,22.000000
2022-08-19T00:05:21.410Z,22.000000
2022-08-19T00:10:21.709Z,21.958333
2022-08-19T00:15:21.421Z,21.900000
2022-08-19T00:20:21.424Z,21.800000
2022-08-19T00:25:33.391Z,21.800000
2022-08-19T00:30:33.453Z,21.800000
2022-08-19T00:35:21.477Z,21.900000
2022-08-19T00:40:21.431Z,21.900000
2022-08-19T00:45:21.453Z,21.990909
2022-08-19T00:50:21.671Z,22.000000
2022-08-19T00:55:21.428Z,21.940000
2022-08-19T01:00:45.480Z,21.866667
2022-08-19T01:05:21.514Z,21.766667
2022-08-19T01:10:21.390Z,21.700000
2022-08-19T01:15:21.583Z,21.700000
2022-08-19T01:20:33.516Z,21.600000
2022-08-19T01:25:21.435Z,21.600000
2022-08-19T01:30:21.483Z,21.516667
2022-08-19T01:35:21.802Z,21.500000
2022-08-19T01:40:21.477Z,21.455556
2022-08-19T01:45:33.631Z,21.400000
2022-08-19T01:50:33.491Z,21.338462
2022-08-19T01:55:33.492Z,21.300000
2022-08-19T02:00:21.452Z,21.290000
2022-08-19T02:05:21.494Z,21.300000
2022-08-19T02:10:21.494Z,21.250000
2022-08-19T02:15:21.544Z,21.200000
2022-08-19T02:20:21.596Z,21.120000
2022-08-19T02:25:33.497Z,21.181818
2022-08-19T02:30:22.175Z,21.200000
2022-08-19T02:35:21.553Z,21.200000
2022-08-19T02:40:33.553Z,21.200000
2022-08-19T02:45:21.550Z,21.130000
2022-08-19T02:50:21.588Z,21.025000
2022-08-19T02:55:46.038Z,20.936364
2022-08-19T03:00:21.735Z,20.990000
2022-08-19T03:05:30.522Z,21.000000
2022-08-19T03:10:33.682Z,20.988889
2022-08-19T03:15:21.542Z,20.877778
2022-08-19T03:20:33.583Z,20.763636
2022-08-19T03:25:33.653Z,20.663636
2022-08-19T03:30:33.547Z,20.600000
2022-08-19T03:35:33.822Z,20.600000
2022-08-19T03:40:33.745Z,20.600000
2022-08-19T03:45:21.752Z,20.600000
2022-08-19T03:50:21.911Z,20.691667
2022-08-19T03:55:21.802Z,20.845455
2022-08-19T04:00:21.644Z,20.990000
2022-08-19T04:05:21.724Z,21.150000
2022-08-19T04:10:21.664Z,21.340000
2022-08-19T04:15:21.715Z,21.510000
2022-08-19T04:20:21.713Z,21.663636
2022-08-19T04:25:45.671Z,21.833333
2022-08-19T04:30:33.887Z,21.980000
2022-08-19T04:35:24.845Z,22.154545
2022-08-19T04:40:21.695Z,22.300000
2022-08-19T04:45:22.992Z,22.412500
2022-08-19T04:50:21.694Z,22.584615
2022-08-19T04:55:21.702Z,22.750000
2022-08-19T05:00:21.741Z,22.936364
2022-08-19T05:05:21.726Z,23.090909
2022-08-19T05:10:33.811Z,23.215385
2022-08-19T05:15:21.720Z,23.300000
2022-08-19T05:20:21.737Z,23.361538
2022-08-19T05:25:21.692Z,23.490909
2022-08-19T05:30:42.107Z,23.611111
2022-08-19T05:35:34.696Z,23.700000
2022-08-19T05:40:33.960Z,23.866667
2022-08-19T05:45:33.759Z,24.063636
2022-08-19T05:50:22.463Z,24.230769
2022-08-19T05:55:21.726Z,24.372727
2022-08-19T06:00:24.699Z,24.430000
2022-08-19T06:05:21.751Z,24.572727
2022-08-19T06:10:21.795Z,24.709091
2022-08-19T06:15:21.830Z,24.850000
2022-08-19T06:20:39.776Z,24.992308
2022-08-19T06:25:21.765Z,25.063636
2022-08-19T06:30:21.723Z,25.209091
2022-08-19T06:35:21.878Z,25.445455
2022-08-19T06:40:22.074Z,25.800000
2022-08-19T06:45:24.890Z,26.027273
2022-08-19T06:50:21.822Z,26.245455
2022-08-19T06:55:46.740Z,26.463636
2022-08-19T07:00:33.897Z,26.690909
2022-08-19T07:05:33.792Z,26.744444
2022-08-19T07:10:21.752Z,26.775000
2022-08-19T07:15:21.925Z,26.890000
2022-08-19T07:20:21.816Z,27.027273
2022-08-19T07:25:21.826Z,27.233333
2022-08-19T07:30:21.968Z,27.390000
2022-08-19T07:35:21.888Z,27.381818
2022-08-19T07:40:21.916Z,27.320000
2022-08-19T07:45:21.984Z,27.410000
2022-08-19T07:50:21.945Z,27.591667
2022-08-19T07:55:42.320Z,27.725000
2022-08-19T08:00:24.227Z,27.950000
2022-08-19T08:05:21.894Z,28.163636
2022-08-19T08:10:21.933Z,28.330769
2022-08-19T08:15:21.903Z,28.400000
2022-08-19T08:20:21.965Z,28.450000
2022-08-19T08:25:21.976Z,28.533333
2022-08-19T08:30:22.114Z,28.600000
2022-08-19T08:35:22.177Z,28.625000
2022-08-19T08:40:22.124Z,28.700000
2022-08-19T08:45:21.899Z,28.820000
2022-08-19T08:50:22.002Z,28.841667
2022-08-19T08:55:36.797Z,28.900000
2022-08-19T09:00:21.933Z,29.000000
2022-08-19T09:05:25.812Z,29.090000
2022-08-19T09:10:22.047Z,29.100000
2022-08-19T09:15:21.888Z,29.070000
2022-08-19T09:20:22.234Z,29.046154
2022-08-19T09:25:26.646Z,29.000000
2022-08-19T09:30:34.155Z,29.150000
2022-08-19T09:35:22.006Z,29.380000
2022-08-19T09:40:22.077Z,29.736364
2022-08-19T09:45:22.102Z,29.810000
2022-08-19T09:50:34.191Z,29.880000
2022-08-19T09:55:22.090Z,29.944444
2022-08-19T10:00:22.339Z,30.027273
2022-08-19T10:05:34.050Z,30.200000
2022-08-19T10:10:22.310Z,30.450000
2022-08-19T10:15:34.185Z,30.520000
2022-08-19T10:20:22.107Z,30.400000
2022-08-19T10:25:22.047Z,30.400000
2022-08-19T10:30:22.112Z,30.463636
2022-08-19T10:35:22.357Z,30.212500
2022-08-19T10:40:34.197Z,30.181818
2022-08-19T10:45:22.409Z,30.120000
2022-08-19T10:50:22.169Z,30.227273
2022-08-19T10:55:22.261Z,30.250000
2022-08-19T11:00:22.551Z,30.416667
2022-08-19T11:05:22.244Z,30.418182
2022-08-19T11:10:22.459Z,29.600000
2022-08-19T11:15:22.224Z,28.580000
2022-08-19T11:20:22.210Z,27.527273
2022-08-19T11:25:22.213Z,27.100000
2022-08-19T11:30:22.303Z,26.908333
2022-08-19T11:35:22.523Z,26.945455
2022-08-19T11:40:22.292Z,27.327273
2022-08-19T11:45:22.335Z,27.487500
2022-08-19T11:50:22.276Z,27.300000
2022-08-19T11:55:22.223Z,27.054545
2022-08-19T12:00:22.253Z,26.925000
2022-08-19T12:05:22.282Z,26.966667
2022-08-19T12:10:26.537Z,26.950000
2022-08-19T12:15:22.351Z,27.000000
2022-08-19T12:20:22.553Z,27.033333
2022-08-19T12:25:22.463Z,27.230000
2022-08-19T12:30:34.253Z,27.546154
2022-08-19T12:35:22.362Z,27.880000
2022-08-19T12:40:22.271Z,27.920000
2022-08-19T12:45:22.291Z,27.900000
2022-08-19T12:50:22.367Z,27.800000
2022-08-19T12:55:22.374Z,27.800000
2022-08-19T13:00:22.391Z,27.900000
2022-08-19T13:05:22.609Z,28.090909
2022-08-19T13:10:22.648Z,28.000000
2022-08-19T13:15:24.086Z,27.645455
2022-08-19T13:20:34.354Z,27.200000
2022-08-19T13:25:22.344Z,26.890000
2022-08-19T13:30:22.412Z,26.733333
2022-08-19T13:35:22.376Z,26.463636
2022-08-19T13:40:22.655Z,26.276923
2022-08-19T13:45:22.433Z,26.190000
2022-08-19T13:50:22.487Z,26.053846
2022-08-19T13:55:25.133Z,25.880000
2022-08-19T14:00:22.567Z,25.800000
2022-08-19T14:05:22.352Z,25.800000
2022-08-19T14:10:22.377Z,25.900000
2022-08-19T14:15:22.427Z,25.900000
2022-08-19T14:20:22.505Z,25.900000
2022-08-19T14:25:22.487Z,25.900000
2022-08-19T14:30:22.378Z,25.900000
2022-08-19T14:35:22.498Z,25.850000
2022-08-19T14:40:22.846Z,25.772727
2022-08-19T14:45:22.397Z,25.708333
2022-08-19T14:50:34.618Z,25.654545
2022-08-19T14:55:22.482Z,25.600000
2022-08-19T15:00:34.530Z,25.600000
2022-08-19T15:05:23.162Z,25.600000
2022-08-19T15:10:22.504Z,25.536364
2022-08-19T15:15:22.409Z,25.422222
2022-08-19T15:20:34.443Z,25.284615
2022-08-19T15:25:22.465Z,25.200000
2022-08-19T15:30:22.834Z,25.125000
2022-08-19T15:35:34.539Z,25.000000
2022-08-19T15:40:22.600Z,24.910000
2022-08-19T15:45:22.624Z,24.900000
2022-08-19T15:50:22.437Z,24.900000
2022-08-19T15:55:34.917Z,24.860000
2022-08-19T16:00:22.433Z,24.800000
2022-08-19T16:05:34.714Z,24.800000
2022-08-19T16:10:26.969Z,24.700000
2022-08-19T16:15:22.546Z,24.690000
2022-08-19T16:20:22.442Z,24.600000
2022-08-19T16:25:22.478Z,24.600000
2022-08-19T16:30:22.506Z,24.572727
2022-08-19T16:35:22.477Z,24.500000
2022-08-19T16:40:22.577Z,24.430000
2022-08-19T16:45:22.581Z,24.355556
2022-08-19T16:50:45.906Z,24.300000
2022-08-19T16:55:22.456Z,24.218182
2022-08-19T17:00:22.475Z,24.200000
2022-08-19T17:05:22.498Z,24.100000
2022-08-19T17:10:22.451Z,23.950000
2022-08-19T17:15:22.682Z,23.844444
2022-08-19T17:20:22.396Z,23.722222
2022-08-19T17:25:22.451Z,23.700000
2022-08-19T17:30:46.538Z,23.610000
2022-08-19T17:35:24.485Z,23.542857
2022-08-19T17:41:34.746Z,23.442857
2022-08-19T17:45:34.425Z,23.266667
2022-08-19T17:50:22.460Z,23.200000
2022-08-19T17:55:34.544Z,23.110000
2022-08-19T18:00:22.517Z,23.058333
2022-08-19T18:05:34.590Z,22.963636
2022-08-19T18:10:46.477Z,22.900000
2022-08-19T18:15:22.469Z,22.900000
2022-08-19T18:20:22.734Z,22.890000
2022-08-19T18:25:58.440Z,22.800000
2022-08-19T18:30:22.494Z,22.700000
2022-08-19T18:35:22.494Z,22.700000
2022-08-19T18:40:34.439Z,22.700000
2022-08-19T18:45:22.493Z,22.700000
2022-08-19T18:50:22.477Z,22.650000
2022-08-19T18:55:22.475Z,22.525000
2022-08-19T19:00:23.516Z,22.345455
2022-08-19T19:05:22.510Z,22.225000
2022-08-19T19:10:22.667Z,22.230000
2022-08-19T19:15:22.501Z,22.227273
2022-08-19T19:20:22.438Z,22.150000
2022-08-19T19:25:22.452Z,21.975000
2022-08-19T19:30:22.499Z,21.827273
2022-08-19T19:35:22.421Z,21.800000
2022-08-19T19:40:22.668Z,21.745455
2022-08-19T19:45:22.460Z,21.570000
2022-08-19T19:50:34.735Z,21.422222
2022-08-19T19:55:22.672Z,21.237500
2022-08-19T20:00:22.953Z,21.108333
2022-08-19T20:05:22.481Z,21.100000
2022-08-19T20:10:24.102Z,21.184615
2022-08-19T20:15:22.570Z,21.100000
2022-08-19T20:20:22.852Z,21.100000
2022-08-19T20:25:26.051Z,21.100000
2022-08-19T20:30:24.349Z,21.044444
2022-08-19T20:35:22.445Z,20.975000
2022-08-19T20:40:34.636Z,20.883333
2022-08-19T20:45:32.682Z,20.800000
2022-08-19T20:50:22.689Z,20.800000
2022-08-19T20:55:24.073Z,20.780000
2022-08-19T21:00:22.467Z,20.700000
2022-08-19T21:05:28.429Z,20.700000
2022-08-19T21:10:22.539Z,20.700000
2022-08-19T21:15:22.486Z,20.600000
2022-08-19T21:20:22.416Z,20.518182
2022-08-19T21:25:22.396Z,20.500000
2022-08-19T21:30:22.475Z,20.500000
2022-08-19T21:35:22.472Z,20.420000
2022-08-19T21:40:22.808Z,20.500000
2022-08-19T21:45:22.557Z,20.600000
2022-08-19T21:50:25.782Z,20.600000
2022-08-19T21:55:22.481Z,20.510000
2022-08-19T22:00:22.446Z,20.500000
2022-08-19T22:05:22.474Z,20.500000
2022-08-19T22:10:35.482Z,20.500000
2022-08-19T22:15:34.439Z,20.500000
2022-08-19T22:20:22.382Z,20.627273
2022-08-19T22:25:22.422Z,20.870000
2022-08-19T22:30:22.438Z,21.100000
2022-08-19T22:35:22.517Z,21.200000
2022-08-19T22:40:22.466Z,21.272727
2022-08-19T22:45:22.544Z,21.200000
2022-08-19T22:50:22.395Z,21.090000
2022-08-19T22:55:22.451Z,20.966667
2022-08-19T23:00:22.742Z,20.855556
2022-08-19T23:05:22.514Z,20.927273
2022-08-19T23:10:27.351Z,21.107692
2022-08-19T23:15:22.482Z,21.260000
2022-08-19T23:20:22.345Z,21.300000
2022-08-19T23:25:22.433Z,21.244444
2022-08-19T23:30:22.488Z,21.200000
2022-08-19T23:35:22.476Z,21.316667
2022-08-19T23:40:22.517Z,21.400000
2022-08-19T23:45:23.833Z,21.345455
2022-08-19T23:50:22.693Z,21.169231
2022-08-19T23:55:34.516Z,21.040000
